createdAt,value
2018-09-24T00:01:59.629Z,10.16
2018-09-24T00:04:28.067Z,10.11
2018-09-24T00:06:58.812Z,10.04
2018-09-24T00:09:29.465Z,10.00
2018-09-24T00:12:00.083Z,9.95
2018-09-24T00:14:29.121Z,9.87
2018-09-24T00:17:00.593Z,9.83
2018-09-24T00:19:31.049Z,9.77
2018-09-24T00:22:01.125Z,9.74
2018-09-24T00:24:30.197Z,9.72
2018-09-24T00:27:00.666Z,9.72
2018-09-24T00:29:31.029Z,9.73
2018-09-24T00:31:59.614Z,9.76
2018-09-24T00:34:30.423Z,9.77
2018-09-24T00:37:00.904Z,9.77
2018-09-24T00:39:30.666Z,9.77
2018-09-24T00:41:59.312Z,9.79
2018-09-24T00:44:29.668Z,9.79
2018-09-24T00:46:58.246Z,9.80
2018-09-24T00:49:28.904Z,9.79
2018-09-24T00:51:59.228Z,9.77
2018-09-24T00:54:29.376Z,9.76
2018-09-24T00:56:59.179Z,9.76
2018-09-24T00:59:29.402Z,9.75
2018-09-24T01:01:58.114Z,9.73
2018-09-24T01:04:28.559Z,9.72
2018-09-24T01:06:58.950Z,9.70
2018-09-24T01:09:28.299Z,9.68
2018-09-24T01:11:58.344Z,9.67
2018-09-24T01:14:28.463Z,9.65
2018-09-24T01:16:56.966Z,9.64
2018-09-24T01:19:27.470Z,9.68
2018-09-24T01:21:57.885Z,9.69
2018-09-24T01:24:28.348Z,9.73
2018-09-24T01:26:57.047Z,9.76
2018-09-24T01:29:27.264Z,9.79
2018-09-24T01:31:55.760Z,9.80
2018-09-24T01:34:26.324Z,9.80
2018-09-24T01:36:56.139Z,9.79
2018-09-24T01:39:24.971Z,9.77
2018-09-24T01:41:55.150Z,9.74
2018-09-24T01:44:25.094Z,9.71
2018-09-24T01:46:53.811Z,9.70
2018-09-24T01:49:23.835Z,9.70
2018-09-24T01:51:55.607Z,9.70
2018-09-24T01:54:28.529Z,9.70
2018-09-24T01:56:58.923Z,9.70
2018-09-24T01:59:27.512Z,9.70
2018-09-24T02:01:57.662Z,9.69
2018-09-24T02:04:27.985Z,9.67
2018-09-24T02:07:02.172Z,9.64
2018-09-24T02:09:32.832Z,9.63
2018-09-24T02:12:07.154Z,9.62
2018-09-24T02:14:38.164Z,9.60
2018-09-24T02:17:11.276Z,9.56
2018-09-24T02:19:42.039Z,9.54
2018-09-24T02:22:13.443Z,9.53
2018-09-24T02:24:43.835Z,9.51
2018-09-24T02:27:12.458Z,9.48
2018-09-24T02:29:42.643Z,9.46
2018-09-24T02:32:13.139Z,9.44
2018-09-24T02:34:41.705Z,9.40
2018-09-24T02:37:17.702Z,9.37
2018-09-24T02:39:48.177Z,9.36
2018-09-24T02:42:16.672Z,9.35
2018-09-24T02:44:46.964Z,9.32
2018-09-24T02:47:15.528Z,9.29
2018-09-24T02:49:45.927Z,9.27
2018-09-24T02:52:16.285Z,9.25
2018-09-24T02:54:46.025Z,9.23
2018-09-24T02:57:15.714Z,9.23
2018-09-24T02:59:47.958Z,9.22
2018-09-24T03:02:18.353Z,9.20
2018-09-24T03:04:49.359Z,9.22
2018-09-24T03:07:18.861Z,9.23
2018-09-24T03:09:50.510Z,9.27
2018-09-24T03:12:20.389Z,9.29
2018-09-24T03:14:48.937Z,9.31
2018-09-24T03:17:20.016Z,9.31
2018-09-24T03:19:50.274Z,9.33
2018-09-24T03:22:24.842Z,9.32
2018-09-24T03:24:55.014Z,9.33
2018-09-24T03:27:25.622Z,9.34
2018-09-24T03:29:56.025Z,9.35
2018-09-24T03:32:26.324Z,9.36
2018-09-24T03:34:54.856Z,9.35
2018-09-24T03:37:25.590Z,9.33
2018-09-24T03:39:56.112Z,9.29
2018-09-24T03:42:26.342Z,9.25
2018-09-24T03:44:54.932Z,9.20
2018-09-24T03:47:25.289Z,9.18
2018-09-24T03:49:53.943Z,9.18
2018-09-24T03:52:24.136Z,9.17
2018-09-24T03:54:54.145Z,9.15
2018-09-24T03:57:22.799Z,9.08
2018-09-24T03:59:53.221Z,9.02
2018-09-24T04:02:23.593Z,8.98
2018-09-24T04:04:57.281Z,8.92
2018-09-24T04:07:32.774Z,8.88
2018-09-24T04:10:06.562Z,8.85
2018-09-24T04:12:40.169Z,8.82
2018-09-24T04:15:15.452Z,8.77
2018-09-24T04:17:49.253Z,8.74
2018-09-24T04:20:23.043Z,8.71
2018-09-24T04:22:59.061Z,8.73
2018-09-24T04:25:33.991Z,8.68
2018-09-24T04:28:09.878Z,8.64
2018-09-24T04:30:43.842Z,8.66
2018-09-24T04:33:19.369Z,8.68
2018-09-24T04:35:53.243Z,8.69
2018-09-24T04:38:26.919Z,8.70
2018-09-24T04:41:02.255Z,8.73
2018-09-24T04:43:36.203Z,8.76
2018-09-24T04:46:11.179Z,8.82
2018-09-24T04:48:45.417Z,8.84
2018-09-24T04:51:19.156Z,8.88
2018-09-24T04:54:00.023Z,8.93
2018-09-24T04:56:34.014Z,8.97
2018-09-24T04:59:08.019Z,9.01
2018-09-24T05:01:43.626Z,9.06
2018-09-24T05:04:17.523Z,9.07
2018-09-24T05:06:53.354Z,9.09
2018-09-24T05:09:27.294Z,9.11
2018-09-24T05:12:01.315Z,9.14
2018-09-24T05:14:37.181Z,9.17
2018-09-24T05:17:11.190Z,9.18
2018-09-24T05:19:46.017Z,9.21
2018-09-24T05:22:19.942Z,9.24
2018-09-24T05:24:54.066Z,9.27
2018-09-24T05:27:29.890Z,9.27
2018-09-24T05:30:03.664Z,9.27
2018-09-24T05:32:39.053Z,9.27
2018-09-24T05:35:12.983Z,9.28
2018-09-24T05:37:48.375Z,9.27
2018-09-24T05:40:23.180Z,9.25
2018-09-24T05:42:56.897Z,9.24
2018-09-24T05:45:32.687Z,9.21
2018-09-24T05:48:06.367Z,9.21
2018-09-24T05:50:40.098Z,9.21
2018-09-24T05:53:15.822Z,9.18
2018-09-24T05:55:49.806Z,9.17
2018-09-24T05:58:25.631Z,9.17
2018-09-24T06:00:59.429Z,9.16
2018-09-24T06:03:34.983Z,9.12
2018-09-24T06:06:08.717Z,9.11
2018-09-24T06:08:42.431Z,9.11
2018-09-24T06:11:18.567Z,9.11
2018-09-24T06:13:52.215Z,9.13
2018-09-24T06:16:26.009Z,9.17
2018-09-24T06:19:01.382Z,9.21
2018-09-24T06:21:35.385Z,9.26
2018-09-24T06:24:10.273Z,9.31
2018-09-24T06:26:44.401Z,9.40
2018-09-24T06:29:18.619Z,9.52
2018-09-24T06:31:54.412Z,9.67
2018-09-24T06:34:28.267Z,9.81
2018-09-24T06:37:04.226Z,9.92
2018-09-24T06:39:37.977Z,10.02
2018-09-24T06:42:11.642Z,10.10
2018-09-24T06:44:47.031Z,10.16
2018-09-24T06:47:20.855Z,10.19
2018-09-24T06:49:58.887Z,10.24
2018-09-24T06:52:32.717Z,10.30
2018-09-24T06:55:08.379Z,10.38
2018-09-24T06:57:42.777Z,10.50
2018-09-24T07:00:18.089Z,10.59
2018-09-24T07:02:51.789Z,10.69
2018-09-24T07:05:27.881Z,10.78
2018-09-24T07:08:01.767Z,10.84
2018-09-24T07:10:37.700Z,10.89
2018-09-24T07:13:11.407Z,10.91
2018-09-24T07:15:46.590Z,10.92
2018-09-24T07:18:21.032Z,10.92
2018-09-24T07:20:56.659Z,10.93
2018-09-24T07:23:30.489Z,10.94
2018-09-24T07:26:06.346Z,10.93
2018-09-24T07:28:40.265Z,10.98
2018-09-24T07:31:16.175Z,11.12
2018-09-24T07:33:49.987Z,11.31
2018-09-24T07:36:25.324Z,11.52
2018-09-24T07:38:59.340Z,11.76
2018-09-24T07:41:33.545Z,11.99
2018-09-24T07:44:08.525Z,12.27
2018-09-24T07:46:42.201Z,12.51
2018-09-24T07:49:17.589Z,12.65
2018-09-24T07:51:51.502Z,12.90
2018-09-24T07:54:27.413Z,13.14
2018-09-24T07:57:01.258Z,13.40
2018-09-24T07:59:36.396Z,13.67
2018-09-24T08:02:11.633Z,13.84
2018-09-24T08:04:45.557Z,13.98
2018-09-24T08:07:21.171Z,13.96
2018-09-24T08:09:54.851Z,13.91
2018-09-24T08:12:30.642Z,13.87
2018-09-24T08:15:04.736Z,13.94
2018-09-24T08:17:41.866Z,14.01
2018-09-24T08:20:15.790Z,14.09
2018-09-24T08:22:51.258Z,14.11
2018-09-24T08:25:27.973Z,14.10
2018-09-24T08:28:01.598Z,14.31
2018-09-24T08:30:35.379Z,14.44
2018-09-24T08:33:11.185Z,14.65
2018-09-24T08:35:45.037Z,14.91
2018-09-24T08:38:20.909Z,15.18
2018-09-24T08:40:54.655Z,15.45
2018-09-24T08:43:30.043Z,15.66
2018-09-24T08:46:04.051Z,15.83
2018-09-24T08:48:39.185Z,15.88
2018-09-24T08:51:12.942Z,15.78
2018-09-24T08:53:46.750Z,15.62
2018-09-24T08:56:22.265Z,15.44
2018-09-24T08:58:55.931Z,15.31
2018-09-24T09:01:31.752Z,15.27
2018-09-24T09:04:05.528Z,15.20
2018-09-24T09:06:41.496Z,15.18
2018-09-24T09:09:16.518Z,15.15
2018-09-24T09:11:52.209Z,15.13
2018-09-24T09:14:26.010Z,15.16
2018-09-24T09:17:01.451Z,15.21
2018-09-24T09:19:35.028Z,15.26
2018-09-24T09:22:10.754Z,15.23
2018-09-24T09:24:44.695Z,15.11
2018-09-24T09:27:20.059Z,14.98
2018-09-24T09:29:53.830Z,14.68
2018-09-24T09:32:29.952Z,14.26
2018-09-24T09:35:03.785Z,13.90
2018-09-24T09:37:39.888Z,13.65
2018-09-24T09:40:13.594Z,13.45
2018-09-24T09:42:47.424Z,13.36
2018-09-24T09:45:22.386Z,13.31
2018-09-24T09:47:56.210Z,13.38
2018-09-24T09:50:32.015Z,13.68
2018-09-24T09:53:05.749Z,13.93
2018-09-24T09:55:41.092Z,14.13
2018-09-24T09:58:15.192Z,14.49
2018-09-24T10:00:51.299Z,14.86
2018-09-24T10:03:25.198Z,15.18
2018-09-24T10:06:00.655Z,15.48
2018-09-24T10:08:34.517Z,15.86
2018-09-24T10:11:10.593Z,16.27
2018-09-24T10:13:44.492Z,16.54
2018-09-24T10:16:20.260Z,16.62
2018-09-24T10:18:54.114Z,16.65
2018-09-24T10:21:29.856Z,16.70
2018-09-24T10:24:03.599Z,16.74
2018-09-24T10:26:39.562Z,16.79
2018-09-24T10:29:14.641Z,16.84
2018-09-24T10:31:49.039Z,17.07
2018-09-24T10:34:22.790Z,17.31
2018-09-24T10:36:59.789Z,17.41
2018-09-24T10:39:35.775Z,17.33
2018-09-24T10:42:09.431Z,17.42
2018-09-24T10:44:45.273Z,17.57
2018-09-24T10:47:20.924Z,17.68
2018-09-24T10:49:54.627Z,17.74
2018-09-24T10:52:29.183Z,17.64
2018-09-24T10:55:03.718Z,17.76
2018-09-24T10:57:40.019Z,17.84
2018-09-24T11:00:13.881Z,18.14
2018-09-24T11:03:02.194Z,18.32
2018-09-24T11:05:35.932Z,18.37
2018-09-24T11:08:11.613Z,18.53
2018-09-24T11:10:45.536Z,18.72
2018-09-24T11:13:21.208Z,18.82
2018-09-24T11:15:55.364Z,18.86
2018-09-24T11:18:30.744Z,18.75
2018-09-24T11:21:04.482Z,18.57
2018-09-24T11:23:40.456Z,18.45
2018-09-24T11:28:50.365Z,18.03
2018-09-24T11:31:24.263Z,17.77
2018-09-24T11:33:59.706Z,17.40
2018-09-24T11:36:35.750Z,17.18
2018-09-24T11:39:11.165Z,17.14
2018-09-24T11:41:47.124Z,17.14
2018-09-24T11:44:23.275Z,17.25
2018-09-24T11:46:57.906Z,17.46
2018-09-24T11:49:33.178Z,17.60
2018-09-24T11:52:07.280Z,17.73
2018-09-24T11:54:42.543Z,17.86
2018-09-24T11:57:16.352Z,17.89
2018-09-24T11:59:51.809Z,18.06
2018-09-24T12:02:25.721Z,18.13
2018-09-24T12:05:01.561Z,18.30
2018-09-24T12:07:35.170Z,18.43
2018-09-24T12:10:10.739Z,18.52
2018-09-24T12:12:44.452Z,18.61
2018-09-24T12:15:19.753Z,18.47
2018-09-24T12:17:54.409Z,18.51
2018-09-24T12:20:29.872Z,18.62
2018-09-24T12:23:03.897Z,18.64
2018-09-24T12:25:39.281Z,18.63
2018-09-24T12:28:16.063Z,18.62
2018-09-24T12:30:50.096Z,18.69
2018-09-24T12:33:25.954Z,18.67
2018-09-24T12:36:04.295Z,18.62
2018-09-24T12:38:38.554Z,18.71
2018-09-24T12:41:12.371Z,18.75
2018-09-24T12:43:49.452Z,18.76
2018-09-24T12:46:24.979Z,18.85
2018-09-24T12:48:58.822Z,19.02
2018-09-24T12:51:36.581Z,19.29
2018-09-24T12:54:12.519Z,19.37
2018-09-24T12:56:46.733Z,19.14
2018-09-24T12:59:22.810Z,18.99
2018-09-24T13:01:59.177Z,18.95
2018-09-24T13:04:33.992Z,18.85
2018-09-24T13:07:09.339Z,18.66
2018-09-24T13:09:43.105Z,18.69
2018-09-24T13:12:19.854Z,18.68
2018-09-24T13:14:57.423Z,18.66
2018-09-24T13:17:31.860Z,18.55
2018-09-24T13:20:07.844Z,18.48
2018-09-24T13:22:41.689Z,18.52
2018-09-24T13:25:17.688Z,18.55
2018-09-24T13:27:51.588Z,18.51
2018-09-24T13:30:27.881Z,18.37
2018-09-24T13:33:01.910Z,18.34
2018-09-24T13:35:37.517Z,18.24
2018-09-24T13:38:11.284Z,18.15
2018-09-24T13:40:47.578Z,18.18
2018-09-24T13:43:21.483Z,18.27
2018-09-24T13:45:57.086Z,18.38
2018-09-24T13:48:30.914Z,18.38
2018-09-24T13:51:06.367Z,18.40
2018-09-24T13:53:40.462Z,18.50
2018-09-24T13:56:15.506Z,18.58
2018-09-24T13:58:49.421Z,18.68
2018-09-24T14:01:24.943Z,18.73
2018-09-24T14:03:58.920Z,18.74
2018-09-24T14:06:34.500Z,18.73
2018-09-24T14:09:10.044Z,18.74
2018-09-24T14:11:45.653Z,18.57
2018-09-24T14:14:19.685Z,18.42
2018-09-24T14:16:55.173Z,18.15
2018-09-24T14:19:30.230Z,17.93
2018-09-24T14:22:03.929Z,17.82
2018-09-24T14:24:39.745Z,17.65
2018-09-24T14:27:13.766Z,17.61
2018-09-24T14:29:47.423Z,17.68
2018-09-24T14:32:23.250Z,17.78
2018-09-24T14:34:57.726Z,18.05
2018-09-24T14:37:33.313Z,18.21
2018-09-24T14:40:07.041Z,18.26
2018-09-24T14:42:40.942Z,18.25
2018-09-24T14:45:17.089Z,18.31
2018-09-24T14:47:50.848Z,18.33
2018-09-24T14:50:25.035Z,18.35
2018-09-24T14:53:02.657Z,18.23
2018-09-24T14:55:38.300Z,18.00
2018-09-24T14:58:14.901Z,17.96
2018-09-24T15:00:53.514Z,17.94
2018-09-24T15:03:32.034Z,17.99
2018-09-24T15:06:07.783Z,18.02
2018-09-24T15:08:42.685Z,18.10
2018-09-24T15:11:17.575Z,18.19
2018-09-24T15:13:52.327Z,18.22
2018-09-24T15:16:26.979Z,18.18
2018-09-24T15:19:03.672Z,18.08
2018-09-24T15:21:37.559Z,17.91
2018-09-24T15:24:11.389Z,17.84
2018-09-24T15:26:47.010Z,17.73
2018-09-24T15:29:21.754Z,17.57
2018-09-24T15:31:57.113Z,17.40
2018-09-24T15:34:31.191Z,17.31
2018-09-24T15:37:05.414Z,17.09
2018-09-24T15:39:42.588Z,16.98
2018-09-24T15:42:17.323Z,16.89
2018-09-24T15:44:53.354Z,16.78
2018-09-24T15:47:28.460Z,16.65
2018-09-24T15:50:05.174Z,16.54
2018-09-24T15:52:45.659Z,16.45
2018-09-24T15:55:19.564Z,16.33
2018-09-24T15:57:55.674Z,16.24
2018-09-24T16:00:29.674Z,16.17
2018-09-24T16:03:06.749Z,16.11
2018-09-24T16:05:40.721Z,16.03
2018-09-24T16:08:14.600Z,16.03
2018-09-24T16:10:51.001Z,15.96
2018-09-24T16:13:24.962Z,15.89
2018-09-24T16:15:59.299Z,15.78
2018-09-24T16:18:34.814Z,15.69
2018-09-24T16:21:08.746Z,15.62
2018-09-24T16:23:42.554Z,15.51
2018-09-24T16:26:19.987Z,15.40
2018-09-24T16:28:53.686Z,15.30
2018-09-24T16:31:27.452Z,15.22
2018-09-24T16:34:02.721Z,15.18
2018-09-24T16:36:37.243Z,15.14
2018-09-24T16:39:15.337Z,15.07
2018-09-24T16:41:49.353Z,15.05
2018-09-24T16:44:23.296Z,15.07
2018-09-24T16:46:58.612Z,15.04
2018-09-24T16:49:32.525Z,15.02
2018-09-24T16:52:06.415Z,14.99
2018-09-24T16:54:40.422Z,14.99
2018-09-24T16:57:17.478Z,14.96
2018-09-24T16:59:51.226Z,14.86
2018-09-24T17:02:27.927Z,14.84
2018-09-24T17:05:01.595Z,14.80
2018-09-24T17:07:35.488Z,14.71
2018-09-24T17:10:11.451Z,14.66
2018-09-24T17:12:45.802Z,14.58
2018-09-24T17:15:19.390Z,14.48
2018-09-24T17:17:53.264Z,14.38
2018-09-24T17:20:29.075Z,14.29
2018-09-24T17:23:03.072Z,14.24
2018-09-24T17:25:36.985Z,14.18
2018-09-24T17:28:10.800Z,14.12
2018-09-24T17:30:46.842Z,14.05
2018-09-24T17:33:20.908Z,14.00
2018-09-24T17:35:54.655Z,13.95
2018-09-24T17:38:28.401Z,13.90
2018-09-24T17:41:04.145Z,13.80
2018-09-24T17:43:37.719Z,13.69
2018-09-24T17:46:11.519Z,13.60
2018-09-24T17:48:45.291Z,13.55
2018-09-24T17:51:18.960Z,13.48
2018-09-24T17:53:54.276Z,13.38
2018-09-24T17:56:29.012Z,13.30
2018-09-24T17:59:03.628Z,13.24
2018-09-24T18:01:37.370Z,13.21
2018-09-24T18:04:14.050Z,13.18
2018-09-24T18:06:49.510Z,13.15
2018-09-24T18:09:23.619Z,13.11
2018-09-24T18:11:57.568Z,13.07
2018-09-24T18:14:31.282Z,13.01
2018-09-24T18:17:07.136Z,12.96
2018-09-24T18:19:41.033Z,12.88
2018-09-24T18:22:14.833Z,12.80
2018-09-24T18:24:48.721Z,12.74
2018-09-24T18:27:23.753Z,12.63
2018-09-24T18:29:59.697Z,12.53
2018-09-24T18:32:33.534Z,12.44
2018-09-24T18:35:07.289Z,12.39
2018-09-24T18:37:41.013Z,12.32
2018-09-24T18:40:14.966Z,12.23
2018-09-24T18:42:48.570Z,12.17
2018-09-24T18:45:22.384Z,12.12
2018-09-24T18:47:56.129Z,12.05
2018-09-24T18:50:29.862Z,12.00
2018-09-24T18:53:03.533Z,11.94
2018-09-24T18:55:38.590Z,11.89
2018-09-24T18:58:14.306Z,11.87
2018-09-24T19:00:48.478Z,11.85
2018-09-24T19:03:22.334Z,11.83
2018-09-24T19:05:56.118Z,11.80
2018-09-24T19:08:30.805Z,11.78
2018-09-24T19:11:06.603Z,11.78
2018-09-24T19:13:40.701Z,11.71
2018-09-24T19:16:14.624Z,11.66
2018-09-24T19:18:48.355Z,11.65
2018-09-24T19:21:22.101Z,11.64
2018-09-24T19:23:55.682Z,11.63
2018-09-24T19:26:31.000Z,11.65
2018-09-24T19:29:06.698Z,11.69
2018-09-24T19:31:41.298Z,11.70
2018-09-24T19:34:15.013Z,11.72
2018-09-24T19:39:21.544Z,11.78
2018-09-24T19:41:55.281Z,11.83
2018-09-24T19:44:31.105Z,11.86
2018-09-24T19:47:06.368Z,11.86
2018-09-24T19:49:40.129Z,11.87
2018-09-24T19:52:13.722Z,11.92
2018-09-24T19:54:49.307Z,11.95
2018-09-24T19:57:23.842Z,11.97
2018-09-24T19:59:57.594Z,12.03
2018-09-24T20:02:31.245Z,12.06
2018-09-24T20:05:07.502Z,12.05
2018-09-24T20:07:41.454Z,12.02
2018-09-24T20:10:15.412Z,11.97
2018-09-24T20:12:49.437Z,11.90
2018-09-24T20:15:23.170Z,11.84
2018-09-24T20:17:56.958Z,11.78
2018-09-24T20:20:30.689Z,11.70
2018-09-24T20:23:06.630Z,11.71
2018-09-24T20:25:41.791Z,11.66
2018-09-24T20:28:15.796Z,11.65
2018-09-24T20:30:50.734Z,11.67
2018-09-24T20:33:25.805Z,11.64
2018-09-24T20:35:59.637Z,11.62
2018-09-24T20:38:33.802Z,11.63
2018-09-24T20:41:07.583Z,11.60
2018-09-24T20:43:41.495Z,11.55
2018-09-24T20:46:15.291Z,11.51
2018-09-24T20:48:50.558Z,11.44
2018-09-24T20:51:25.294Z,11.35
2018-09-24T20:54:00.115Z,11.28
2018-09-24T20:56:35.995Z,11.26
2018-09-24T20:59:09.983Z,11.23
2018-09-24T21:01:43.738Z,11.22
2018-09-24T21:04:17.940Z,11.18
2018-09-24T21:06:54.815Z,11.18
2018-09-24T21:09:28.659Z,11.19
2018-09-24T21:12:02.478Z,11.18
2018-09-24T21:14:37.329Z,11.18
2018-09-24T21:17:12.589Z,11.16
2018-09-24T21:19:46.704Z,11.14
2018-09-24T21:22:20.616Z,11.14
2018-09-24T21:24:54.719Z,11.14
2018-09-24T21:27:28.509Z,11.13
2018-09-24T21:30:04.822Z,11.13
2018-09-24T21:32:39.099Z,11.11
2018-09-24T21:35:13.174Z,11.11
2018-09-24T21:37:50.149Z,11.09
2018-09-24T21:40:25.093Z,11.06
2018-09-24T21:43:03.290Z,11.04
2018-09-24T21:45:37.736Z,10.96
2018-09-24T21:48:13.401Z,10.88
2018-09-24T21:50:48.160Z,10.75
2018-09-24T21:53:23.979Z,10.65
2018-09-24T21:55:57.772Z,10.56
2018-09-24T21:58:31.681Z,10.49
2018-09-24T22:01:05.515Z,10.48
2018-09-24T22:03:41.571Z,10.46
2018-09-24T22:06:16.178Z,10.40
2018-09-24T22:08:49.841Z,10.33
2018-09-24T22:11:23.562Z,10.28
2018-09-24T22:13:57.246Z,10.24
2018-09-24T22:16:33.251Z,10.16
2018-09-24T22:19:15.013Z,10.10
2018-09-24T22:21:48.827Z,10.06
2018-09-24T22:24:22.674Z,10.03
2018-09-24T22:26:56.445Z,10.04
2018-09-24T22:29:31.837Z,10.06
2018-09-24T22:32:07.349Z,10.08
2018-09-24T22:34:41.245Z,10.12
2018-09-24T22:37:14.941Z,10.15
2018-09-24T22:39:51.189Z,10.18
2018-09-24T22:42:25.599Z,10.20
2018-09-24T22:44:59.424Z,10.21
2018-09-24T22:47:33.352Z,10.22
2018-09-24T22:50:07.121Z,10.24
2018-09-24T22:52:40.833Z,10.19
2018-09-24T22:55:14.775Z,10.13
2018-09-24T22:57:50.247Z,10.07
2018-09-24T23:00:24.233Z,10.04
2018-09-24T23:02:58.012Z,10.00
2018-09-24T23:05:31.833Z,9.95
2018-09-24T23:08:05.726Z,9.95
2018-09-24T23:10:39.564Z,9.98
2018-09-24T23:13:17.113Z,9.99
2018-09-24T23:15:51.762Z,10.00
2018-09-24T23:18:25.709Z,10.00
2018-09-24T23:21:01.806Z,10.01
2018-09-24T23:23:36.928Z,10.01
2018-09-24T23:26:11.489Z,10.03
2018-09-24T23:28:45.419Z,10.02
2018-09-24T23:31:20.877Z,10.00
2018-09-24T23:33:55.575Z,10.01
2018-09-24T23:36:29.725Z,10.00
2018-09-24T23:39:03.558Z,10.00
2018-09-24T23:41:37.796Z,10.00
2018-09-24T23:44:11.758Z,9.98
2018-09-24T23:46:47.364Z,9.98
2018-09-24T23:49:22.558Z,9.92
2018-09-24T23:51:56.197Z,9.91
2018-09-24T23:54:29.801Z,9.90
2018-09-24T23:57:03.926Z,9.90
2018-09-24T23:59:39.871Z,9.89
